sensor_id;sensor_type;location;lat;lon;timestamp;pressure;altitude;pressure_sealevel;temperature;humidity
34893;BME280;21106;52.240;20.902;2022-09-01T18:00:39;100606.35;;;18.11;41.53
34893;BME280;21106;52.240;20.902;2022-09-01T18:11:35;100596.94;;;17.78;42.75
34893;BME280;21106;52.240;20.902;2022-09-01T18:17:02;100603.57;;;17.75;43.14
34893;BME280;21106;52.240;20.902;2022-09-01T18:22:15;100604.72;;;17.81;43.41
34893;BME280;21106;52.240;20.902;2022-09-01T18:27:18;100610.45;;;17.82;43.64
34893;BME280;21106;52.240;20.902;2022-09-01T18:32:39;100623.80;;;17.87;43.89
34893;BME280;21106;52.240;20.902;2022-09-01T18:48:48;100634.07;;;17.92;44.31
34893;BME280;21106;52.240;20.902;2022-09-01T18:54:00;100636.52;;;17.87;44.51
34893;BME280;21106;52.240;20.902;2022-09-01T19:04:39;100645.12;;;17.76;44.85
34893;BME280;21106;52.240;20.902;2022-09-01T19:20:44;100643.48;;;17.56;45.22
34893;BME280;21106;52.240;20.902;2022-09-01T19:25:52;100650.87;;;17.44;45.53
34893;BME280;21106;52.240;20.902;2022-09-01T19:31:09;100649.59;;;17.36;45.74
34893;BME280;21106;52.240;20.902;2022-09-01T19:36:22;100660.02;;;17.28;46.02
34893;BME280;21106;52.240;20.902;2022-09-01T19:41:31;100658.35;;;17.23;46.16
34893;BME280;21106;52.240;20.902;2022-09-01T19:46:43;100659.94;;;17.17;46.35
34893;BME280;21106;52.240;20.902;2022-09-01T19:52:04;100660.63;;;17.15;46.52
34893;BME280;21106;52.240;20.902;2022-09-01T19:57:21;100665.23;;;17.11;46.69
34893;BME280;21106;52.240;20.902;2022-09-01T20:02:34;100669.84;;;17.06;46.90
34893;BME280;21106;52.240;20.902;2022-09-01T20:07:43;100672.43;;;17.00;47.19
34893;BME280;21106;52.240;20.902;2022-09-01T20:12:54;100679.74;;;16.95;47.40
34893;BME280;21106;52.240;20.902;2022-09-01T20:18:05;100682.64;;;16.94;47.55
34893;BME280;21106;52.240;20.902;2022-09-01T20:34:14;100694.02;;;16.89;48.00
34893;BME280;21106;52.240;20.902;2022-09-01T20:39:23;100701.51;;;16.83;48.15
34893;BME280;21106;52.240;20.902;2022-09-01T20:44:51;100703.55;;;16.81;48.32
34893;BME280;21106;52.240;20.902;2022-09-01T20:49:59;100709.53;;;16.77;48.43
34893;BME280;21106;52.240;20.902;2022-09-01T20:55:15;100708.52;;;16.74;48.58
34893;BME280;21106;52.240;20.902;2022-09-01T21:00:26;100706.77;;;16.58;48.57
34893;BME280;21106;52.240;20.902;2022-09-01T21:05:57;100703.27;;;16.42;48.91
34893;BME280;21106;52.240;20.902;2022-09-01T21:21:59;100712.77;;;15.79;49.67
34893;BME280;21106;52.240;20.902;2022-09-01T21:27:06;100726.02;;;15.58;50.11
34893;BME280;21106;52.240;20.902;2022-09-01T21:32:13;100725.30;;;15.31;50.57
34893;BME280;21106;52.240;20.902;2022-09-01T21:37:20;100728.34;;;15.12;50.80
34893;BME280;21106;52.240;20.902;2022-09-01T21:47:42;100737.44;;;14.99;51.40
34893;BME280;21106;52.240;20.902;2022-09-01T21:52:48;100736.45;;;15.04;51.54
34893;BME280;21106;52.240;20.902;2022-09-01T21:57:54;100738.13;;;15.05;51.64
34893;BME280;21106;52.240;20.902;2022-09-01T22:03:00;100744.01;;;14.93;51.81
34893;BME280;21106;52.240;20.902;2022-09-01T22:08:08;100742.45;;;14.78;52.26
34893;BME280;21106;52.240;20.902;2022-09-01T22:13:18;100740.05;;;14.55;52.60
34893;BME280;21106;52.240;20.902;2022-09-01T22:18:24;100735.30;;;14.45;53.16
34893;BME280;21106;52.240;20.902;2022-09-01T22:23:30;100734.33;;;14.24;53.45
34893;BME280;21106;52.240;20.902;2022-09-01T22:28:36;100737.95;;;14.07;53.93
34893;BME280;21106;52.240;20.902;2022-09-01T22:33:42;100732.33;;;13.96;54.12
34893;BME280;21106;52.240;20.902;2022-09-01T22:38:48;100737.67;;;13.88;54.37
34893;BME280;21106;52.240;20.902;2022-09-01T22:43:55;100742.41;;;13.90;54.17
34893;BME280;21106;52.240;20.902;2022-09-01T22:49:03;100743.45;;;13.93;54.28
34893;BME280;21106;52.240;20.902;2022-09-01T22:54:09;100744.65;;;13.99;54.04
34893;BME280;21106;52.240;20.902;2022-09-01T22:59:15;100747.22;;;14.09;53.94
34893;BME280;21106;52.240;20.902;2022-09-01T23:04:22;100744.52;;;14.09;53.83
34893;BME280;21106;52.240;20.902;2022-09-01T23:09:29;100745.19;;;14.07;53.81
34893;BME280;21106;52.240;20.902;2022-09-01T23:14:34;100743.65;;;14.04;53.79
34893;BME280;21106;52.240;20.902;2022-09-01T23:19:40;100743.49;;;14.02;53.89
34893;BME280;21106;52.240;20.902;2022-09-01T23:24:46;100749.00;;;13.96;53.85
34893;BME280;21106;52.240;20.902;2022-09-01T23:29:51;100739.02;;;13.88;53.85
34893;BME280;21106;52.240;20.902;2022-09-01T23:34:57;100754.13;;;13.81;53.75
34893;BME280;21106;52.240;20.902;2022-09-01T23:40:05;100751.08;;;13.76;53.69
34893;BME280;21106;52.240;20.902;2022-09-01T23:45:12;100750.75;;;13.79;53.66
34893;BME280;21106;52.240;20.902;2022-09-01T23:50:18;100749.24;;;13.77;53.44
34893;BME280;21106;52.240;20.902;2022-09-01T23:55:24;100750.25;;;13.80;53.41
